Latest Weather Observations for Falls Creek

IDV60801

Issued at 1:04 am EST Friday 30 September 2016 (issued every 30 minutes, with the page automatically refreshed every 10 minutes)

About weather observations | Map of weather stations | Latest weather observations for VIC | Other Formats
Station Details ID: 083084 Name: FALLS CREEK Lat: -36.87 Lon: 147.28 Height: 1765.0 m
Data from the previous 72 hours. | See also: Recent months at Falls Creek
Date/Time
EST
Temp
°C
App
Temp
°C
Dew
Point
°C
Rel
Hum
%
Delta-T
°C
Wind Press
QNH
hPa
Press
MSL
hPa
Rain since
9am
mm
Dir  Spd
km/h
Gust
km/h
Spd
kts
Gust
kts
30/01:00am -1.4 -9.9 -1.5 99 0.0 NNW 33 46 18 25 - - 10.4
30/12:30am -1.5 -10.4 -1.6 99 0.0 N 35 46 19 25 - - 10.4
30/12:00am -1.5 -12.4 -1.6 99 0.0 NNW 46 69 25 37 - - 10.4
 
Date/Time
EST
Temp
°C
App
Temp
°C
Dew
Point
°C
Rel
Hum
%
Delta-T
°C
Wind Press
QNH
hPa
Press
MSL
hPa
Rain since
9am
mm
Dir  Spd
km/h
Gust
km/h
Spd
kts
Gust
kts
29/11:30pm -2.0 -10.4 -2.3 98 0.0 NNW 32 54 17 29 - - 10.4
29/11:18pm -2.3 -10.0 -2.6 98 0.0 NNW 28 46 15 25 - - 10.2
29/11:00pm -2.5 -10.2 -2.8 98 0.0 NNW 28 39 15 21 - - 10.2
29/10:30pm -2.4 -12.2 -2.7 98 0.0 NNW 39 54 21 29 - - 10.0
29/10:05pm -2.4 -13.9 -2.7 98 0.0 NNW 48 67 26 36 - - 10.0
29/10:00pm -2.3 -13.8 -2.6 98 0.0 NNW 48 63 26 34 - - 10.0
29/09:33pm -2.4 -12.2 -2.7 98 0.0 NNW 39 57 21 31 - - 9.8
29/09:30pm -2.4 -12.5 -2.7 98 0.0 NNW 41 56 22 30 - - 9.8
29/09:00pm -2.3 -12.0 -2.6 98 0.0 NNW 39 50 21 27 992.0 991.4 9.8
29/08:30pm -2.0 -10.9 -2.3 98 0.0 NNW 35 50 19 27 992.4 991.7 9.8
29/08:00pm -2.3 -11.3 -2.6 98 0.0 NNW 35 46 19 25 992.6 992.0 9.6
29/07:30pm -2.3 -11.7 -2.6 98 0.0 NNW 37 54 20 29 992.3 991.6 9.2
29/07:10pm -2.1 -11.1 -2.4 98 0.0 NNW 35 54 19 29 992.0 991.4 9.2
29/07:00pm -2.0 -10.9 -2.3 98 0.0 NNW 35 50 19 27 992.2 991.5 8.8
29/06:30pm -1.9 -12.4 -2.2 98 0.0 NNW 43 57 23 31 - - 8.4
29/06:00pm -2.0 -11.3 -2.1 99 -0.1 NNW 37 61 20 33 - - 7.8
29/05:30pm -1.9 -11.2 -2.2 98 0.0 N 37 57 20 31 - - 7.0
29/05:00pm -1.7 -12.1 -1.8 99 0.0 N 43 67 23 36 - - 7.0
29/04:34pm -1.4 -10.6 -1.5 99 0.0 N 37 56 20 30 - - 7.0
29/04:30pm -1.4 -9.7 -1.5 99 0.0 N 32 44 17 24 - - 6.8
29/04:00pm -1.5 -10.7 -1.6 99 0.0 NNW 37 50 20 27 - - 6.8
29/03:43pm -1.5 -11.5 -1.6 99 0.0 N 41 59 22 32 - - 6.8
29/03:30pm -1.7 -12.3 -2.0 98 0.0 N 44 59 24 32 - - 6.8
29/03:00pm -1.6 -11.2 -1.7 99 0.0 NNW 39 63 21 34 - - 6.8
29/02:36pm -1.5 -10.7 -1.6 99 0.0 NNW 37 57 20 31 - - 6.6
29/02:30pm -1.3 -10.1 -1.4 99 0.0 NNW 35 52 19 28 - - 6.6
29/02:00pm -1.2 -10.4 -1.3 99 0.0 NNW 37 57 20 31 - - 6.6
29/01:31pm -1.5 -9.8 -1.6 99 0.0 NNW 32 52 17 28 - - 6.6
29/01:30pm -1.5 -10.0 -1.6 99 0.0 NNW 33 48 18 26 - - 6.6
29/01:00pm -1.7 -11.3 -1.8 99 0.0 NNW 39 72 21 39 - - 6.6
29/12:30pm -1.8 -11.9 -2.1 98 0.0 NNW 41 65 22 35 - - 6.2
29/12:00pm -0.6 -12.2 -0.7 99 0.0 NNW 50 76 27 41 - - 4.8
29/11:30am -0.5 -12.4 -0.6 99 0.0 N 52 70 28 38 - - 4.0
29/11:20am -0.4 -9.9 -0.5 99 0.0 N 39 61 21 33 - - 4.0
29/11:00am -0.2 -8.3 -0.3 99 0.0 N 32 48 17 26 - - 3.8
29/10:30am -0.5 -8.8 -0.6 99 0.0 NNW 33 52 18 28 - - 3.8
29/10:00am -0.3 -10.7 -0.4 99 0.0 NNW 44 67 24 36 - - 3.4
29/09:57am -0.3 -10.5 -0.4 99 0.0 NNW 43 67 23 36 - - 3.4
29/09:30am 0.0 -7.7 -0.1 99 0.0 NNW 30 48 16 26 992.0 991.4 2.6
29/09:00am 0.0 -9.8 -0.1 99 0.0 NW 41 65 22 35 992.3 991.6 12.2
29/08:49am 0.4 -9.7 0.3 99 0.0 NW 43 61 23 33 992.0 991.4 11.4
29/08:47am 1.1 -9.1 1.0 99 0.0 NNW 44 70 24 38 - - 11.2
29/08:30am 3.3 -7.7 3.2 99 0.0 N 50 72 27 39 - - 9.6
29/08:00am 3.5 -5.3 3.4 99 0.0 N 39 61 21 33 - - 8.2
29/07:48am 3.5 -4.6 3.4 99 0.0 N 35 61 19 33 - - 7.8
29/07:30am 3.6 -5.6 3.5 99 0.0 N 41 57 22 31 992.0 991.4 7.2
29/07:00am 3.3 -5.6 3.2 99 0.0 N 39 59 21 32 992.7 992.1 6.4
29/06:51am 3.4 -6.2 3.3 99 0.0 N 43 65 23 35 992.9 992.2 6.2
29/06:45am 3.4 -6.8 3.3 99 0.0 N 46 72 25 39 993.2 992.6 5.8
29/06:30am 3.5 -8.8 3.4 99 0.0 N 57 96 31 52 992.5 991.9 5.2
29/06:00am 3.3 -9.8 3.2 99 0.0 N 61 96 33 52 992.0 991.4 3.6
29/05:30am 3.0 -9.7 2.9 99 0.0 N 59 82 32 44 993.2 992.6 2.6
29/05:00am 3.4 -10.0 3.3 99 0.0 N 63 98 34 53 993.2 992.6 1.6
29/04:51am 3.8 -8.8 3.7 99 0.0 N 59 98 32 53 992.9 992.2 1.6
29/04:30am 3.7 -6.8 3.6 99 0.0 N 48 74 26 40 994.2 993.6 1.0
29/04:25am 3.4 -6.8 3.3 99 0.0 N 46 67 25 36 994.7 994.1 0.8
29/04:24am 3.4 -6.8 3.3 99 0.0 N 46 67 25 36 994.8 994.2 0.8
29/04:00am 2.7 -10.9 2.4 98 0.1 N 63 96 34 52 994.9 994.3 0.2
29/03:30am 3.0 -11.2 2.9 99 0.0 N 67 95 36 51 995.0 994.5 0.0
29/03:00am 4.2 -11.3 3.3 94 0.4 N 74 107 40 58 994.3 993.7 0.0
29/02:30am 3.8 -11.1 2.2 89 0.7 N 70 98 38 53 995.6 995.1 0.0
29/02:24am 4.1 -10.1 1.0 80 1.4 N 65 107 35 58 996.7 996.2 0.0
29/02:15am 3.8 -7.7 -0.2 75 1.7 N 50 107 27 58 996.8 996.3 0.0
29/02:04am 2.8 -7.4 -0.1 81 1.2 NNW 43 63 23 34 998.3 997.9 0.0
29/02:00am 3.3 -6.9 -0.3 77 1.5 NNW 43 57 23 31 998.5 998.1 0.0
29/01:30am 3.4 -8.0 0.6 82 1.2 NNW 50 72 27 39 998.9 998.6 0.0
29/01:00am 3.3 -7.6 -1.4 71 1.9 N 46 67 25 36 1000.0 999.7 0.0
29/12:30am 3.0 -8.6 -0.8 76 1.6 N 50 70 27 38 1000.7 1000.4 0.0
29/12:00am 3.0 -9.1 -1.4 73 1.8 N 52 76 28 41 1001.0 1000.7 0.0
 
Date/Time
EST
Temp
°C
App
Temp
°C
Dew
Point
°C
Rel
Hum
%
Delta-T
°C
Wind Press
QNH
hPa
Press
MSL
hPa
Rain since
9am
mm
Dir  Spd
km/h
Gust
km/h
Spd
kts
Gust
kts
28/11:30pm 3.4 -7.2 -3.2 62 2.6 N 43 63 23 34 1002.0 1001.8 0.0
28/11:00pm 3.5 -7.6 -2.9 63 2.5 N 46 70 25 38 1002.6 1002.4 0.0
28/10:30pm 3.4 -9.6 -2.5 65 2.3 N 56 82 30 44 1003.0 1002.8 0.0
28/10:24pm 3.5 -8.7 -2.4 65 2.3 N 52 82 28 44 1002.9 1002.6 0.0
28/10:21pm 3.5 -7.5 -2.4 65 2.3 N 46 70 25 38 1003.1 1002.9 0.0
28/10:00pm 2.6 -6.2 -1.2 76 1.6 N 35 54 19 29 1004.1 1003.9 0.0
28/09:41pm 2.7 -7.9 -1.8 72 1.8 N 44 63 24 34 1004.2 1004.0 0.0
28/09:30pm 2.5 -8.1 -1.7 74 1.7 N 44 59 24 32 1004.2 1004.0 0.0
28/09:00pm 2.7 -8.9 -0.6 79 1.4 N 50 76 27 41 1004.3 1004.1 0.0
28/08:30pm 2.6 -7.5 0.2 84 1.0 N 43 65 23 35 1005.4 1005.2 0.0
28/08:00pm 3.6 -5.6 -1.7 68 2.2 N 37 57 20 31 1005.2 1005.1 0.0
28/07:39pm 3.7 -4.9 -2.3 65 2.4 N 33 52 18 28 1005.4 1005.2 0.0
28/07:30pm 4.0 -6.1 -2.8 61 2.7 N 41 54 22 29 1005.1 1005.0 0.0
28/07:04pm 3.8 -4.7 -3.5 59 2.8 N 32 54 17 29 1005.6 1005.5 0.0
28/07:00pm 3.6 -4.1 -3.2 61 2.7 N 28 43 15 23 1005.8 1005.7 0.0
28/06:57pm 3.7 -4.4 -3.3 60 2.7 N 30 48 16 26 1005.8 1005.7 0.0
28/06:30pm 3.6 -3.3 -2.6 64 2.5 N 24 39 13 21 1006.3 1006.2 0.0
28/06:00pm 3.8 -4.5 -2.0 66 2.4 N 32 46 17 25 1006.7 1006.6 0.0
28/05:30pm 3.8 -3.9 0.1 77 1.6 N 30 41 16 22 1007.0 1007.0 0.0
28/05:00pm 3.9 -1.5 2.6 91 0.6 NNW 20 30 11 16 1007.4 1007.4 0.0
28/04:30pm 5.1 -0.5 1.4 77 1.6 N 20 30 11 16 1007.1 1007.1 0.0
28/04:00pm 6.2 0.7 1.9 74 2.0 N 20 26 11 14 1007.4 1007.4 0.0
28/03:30pm 6.1 1.0 2.9 80 1.5 N 19 28 10 15 1007.9 1007.9 0.0
28/03:00pm 6.1 1.3 2.6 78 1.6 N 17 24 9 13 1008.6 1008.6 0.0
28/02:30pm 6.3 1.9 2.6 77 1.7 N 15 22 8 12 1009.0 1009.1 0.0
28/02:00pm 6.4 2.5 3.4 81 1.4 NNW 13 22 7 12 1009.8 1009.8 0.0
28/01:30pm 5.9 2.3 3.1 82 1.3 NW 11 17 6 9 1010.5 1010.6 0.0
28/01:00pm 5.7 1.7 3.0 83 1.3 NNW 13 19 7 10 1011.1 1011.2 0.0
28/12:30pm 5.1 1.0 2.3 82 1.3 NW 13 20 7 11 1011.5 1011.7 0.0
28/12:00pm 4.9 0.9 2.6 85 1.1 NW 13 20 7 11 1011.9 1012.1 0.0
28/11:30am 4.0 0.7 2.2 88 0.8 NW 9 15 5 8 1012.0 1012.2 0.0
28/11:00am 4.0 0.7 2.7 91 0.6 NW 9 15 5 8 1012.4 1012.6 0.0
28/10:30am 3.2 -0.5 2.2 93 0.4 N 11 17 6 9 1012.5 1012.7 0.0
28/10:00am 2.8 -0.1 1.3 90 0.7 NNW 6 9 3 5 1012.6 1012.8 0.0
28/09:30am 2.0 -1.0 1.1 94 0.4 NNW 6 11 3 6 1012.7 1012.9 0.0
28/09:00am 1.4 -1.9 0.4 93 0.4 N 7 13 4 7 1012.9 1013.1 1.0
28/08:30am 0.7 -3.7 0.3 97 0.2 N 13 17 7 9 1013.0 1013.2 1.0
28/08:00am 0.0 -4.6 -1.4 90 0.6 WNW 13 19 7 10 1013.1 1013.3 1.0
28/07:30am -0.4 -5.9 -2.3 87 0.7 W 17 20 9 11 1012.9 1013.1 1.0
28/07:00am -0.8 -5.4 -1.4 96 0.2 WNW 13 19 7 10 1012.9 1013.1 1.0
28/06:30am -1.1 -6.9 -1.4 98 0.1 W 19 24 10 13 1012.5 1012.7 1.0
28/06:00am -1.2 -6.6 -1.5 98 0.1 WNW 17 22 9 12 1012.1 1012.3 1.0
28/05:30am -1.4 -6.1 -1.5 99 0.0 WNW 13 19 7 10 1012.0 1012.2 1.0
28/05:00am -1.5 -6.6 -1.6 99 0.0 NW 15 20 8 11 1012.0 1012.2 1.0
28/04:30am -1.3 -7.7 -1.4 99 0.0 WNW 22 32 12 17 1011.9 1012.1 1.0
28/04:00am -1.2 -7.2 -1.3 99 0.0 NW 20 30 11 16 1011.8 1011.9 1.0
28/03:30am -1.0 -6.4 -1.1 99 0.0 NW 17 28 9 15 1011.9 1012.1 1.0
28/03:00am -0.7 -6.0 -0.8 99 0.0 NW 17 24 9 13 1011.8 1011.9 1.0
28/02:30am -0.6 -5.2 -0.7 99 0.0 NW 13 20 7 11 1011.8 1011.9 1.0
28/02:00am -0.6 -6.5 -0.7 99 0.0 NW 20 26 11 14 1011.9 1012.1 1.0
28/01:30am -0.4 -6.1 -0.5 99 0.0 NW 19 30 10 16 1012.0 1012.2 1.0
28/01:00am -0.5 -6.4 -0.6 99 0.0 NW 20 32 11 17 1012.0 1012.2 1.0
28/12:30am -0.3 -6.1 -0.4 99 0.0 NW 20 30 11 16 1012.0 1012.2 1.0
28/12:00am -0.3 -5.6 -0.4 99 0.0 WNW 17 24 9 13 1012.0 1012.2 1.0
 
Date/Time
EST
Temp
°C
App
Temp
°C
Dew
Point
°C
Rel
Hum
%
Delta-T
°C
Wind Press
QNH
hPa
Press
MSL
hPa
Rain since
9am
mm
Dir  Spd
km/h
Gust
km/h
Spd
kts
Gust
kts
27/11:30pm -0.4 -6.3 -0.5 99 0.0 WNW 20 32 11 17 1012.1 1012.3 1.0
27/11:00pm -0.3 -6.0 -0.4 99 0.0 NW 19 28 10 15 1012.1 1012.3 1.0
27/10:30pm -0.3 -6.0 -0.4 99 0.0 NW 19 30 10 16 1012.3 1012.4 0.8
27/10:00pm -0.3 -4.8 -0.4 99 0.0 NW 13 20 7 11 1012.4 1012.6 0.8
27/09:30pm -0.3 -4.1 -0.4 99 0.0 NNW 9 17 5 9 1012.4 1012.6 0.6
27/09:00pm -0.2 -3.9 -0.3 99 0.0 NW 9 17 5 9 1012.6 1012.8 0.6
27/08:30pm -0.3 -3.7 -0.4 99 0.0 WNW 7 15 4 8 1012.5 1012.7 0.6
27/08:00pm -0.4 -3.6 -0.5 99 0.0 NW 6 9 3 5 1012.5 1012.7 0.6
27/07:30pm -0.5 -3.7 -0.6 99 0.0 NW 6 13 3 7 1012.3 1012.4 0.6
27/07:00pm -0.7 -4.5 -0.8 99 0.0 W 9 13 5 7 1012.0 1012.2 0.4
27/06:30pm -0.4 -3.8 -0.5 99 0.0 WNW 7 13 4 7 1011.7 1011.8 0.4
27/06:00pm -0.1 -3.4 -0.2 99 0.0 W 7 9 4 5 1011.7 1011.8 0.4
27/05:30pm 0.1 -3.0 0.0 99 0.0 WNW 6 9 3 5 1011.3 1011.4 0.4
27/05:00pm 0.1 -3.2 0.0 99 0.0 WNW 7 15 4 8 1011.0 1011.1 0.4
27/04:30pm 0.2 -3.5 0.1 99 0.0 WNW 9 15 5 8 1010.6 1010.7 0.4
27/04:00pm 0.4 -2.9 0.3 99 0.0 WNW 7 13 4 7 1010.4 1010.5 0.4
27/03:30pm 0.2 -2.9 0.1 99 0.0 WNW 6 13 3 7 1010.2 1010.3 0.4
27/03:00pm 0.2 -3.5 -0.1 98 0.1 WNW 9 15 5 8 1010.0 1010.1 0.4
27/02:30pm 0.2 -3.5 -0.1 98 0.1 WNW 9 15 5 8 1009.9 1010.0 0.2
27/02:00pm 0.2 -3.5 -0.1 98 0.1 NW 9 17 5 9 1009.8 1009.8 0.0
27/01:30pm -0.1 -3.9 -0.5 97 0.2 W 9 19 5 10 1009.8 1009.8 0.0
27/01:00pm -0.1 -5.0 -0.4 98 0.1 W 15 24 8 13 1009.4 1009.5 0.0
27/12:30pm -0.1 -3.9 -0.4 98 0.1 NW 9 17 5 9 1009.4 1009.5 0.0
27/12:00pm -0.8 -6.6 -1.4 96 0.2 WSW 19 24 10 13 1009.0 1009.1 0.0
27/11:30am -0.8 -5.0 -1.1 98 0.1 W 11 19 6 10 1009.0 1009.1 0.0
27/11:00am -1.6 -7.7 -2.0 97 0.1 WSW 20 30 11 16 1008.8 1008.8 0.0
27/10:30am -2.1 -7.6 -2.4 98 0.0 W 17 28 9 15 1008.7 1008.7 0.0
27/10:00am -2.3 -8.4 -2.6 98 0.0 WSW 20 28 11 15 1008.5 1008.5 0.0
27/09:30am -2.4 -8.0 -2.7 98 0.0 W 17 26 9 14 1008.2 1008.2 0.0
27/09:00am -2.8 -8.4 -3.1 98 0.0 W 17 22 9 12 1008.0 1008.0 10.2
27/08:30am -2.8 -8.0 -3.1 98 0.0 WNW 15 22 8 12 1007.5 1007.5 10.2
27/08:00am -3.1 -8.4 -3.4 98 0.0 WNW 15 28 8 15 1007.5 1007.5 10.2
27/07:30am -3.4 -9.1 -3.7 98 -0.1 W 17 24 9 13 1006.9 1006.9 10.2
27/07:00am -3.6 -9.3 -3.9 98 -0.1 W 17 26 9 14 1006.9 1006.9 10.2
27/06:30am -3.5 -9.8 -3.8 98 -0.1 WNW 20 30 11 16 1006.2 1006.1 10.2
27/06:00am -3.6 -10.6 -3.9 98 -0.1 W 24 35 13 19 1005.7 1005.6 10.2
27/05:30am -3.3 -8.6 -3.6 98 0.0 NNW 15 33 8 18 1005.5 1005.4 10.2
27/05:00am -3.5 -11.3 -3.8 98 -0.1 WNW 28 41 15 22 1005.2 1005.1 10.2
27/04:30am -2.5 -10.2 -2.8 98 0.0 NW 28 39 15 21 1004.9 1004.8 10.2
27/04:00am -2.2 -11.1 -2.3 99 -0.1 NW 35 52 19 28 1004.8 1004.6 10.2
27/03:30am -0.9 -9.1 -1.0 99 0.0 NW 32 54 17 29 1004.9 1004.8 10.2
27/03:03am -0.8 -8.2 -0.9 99 0.0 NW 28 46 15 25 1004.6 1004.5 8.8
27/03:00am -0.8 -8.6 -0.9 99 0.0 NW 30 46 16 25 1004.9 1004.8 8.6
27/02:30am -0.6 -10.1 -0.7 99 0.0 NNW 39 57 21 31 1004.8 1004.6 6.6
27/02:04am -1.0 -9.8 -1.1 99 0.0 NNW 35 54 19 29 1005.6 1005.5 5.8
27/02:00am -0.9 -10.1 -1.0 99 0.0 NNW 37 54 20 29 1005.5 1005.4 5.4
27/01:30am -1.1 -10.3 -1.2 99 0.0 NNW 37 57 20 31 1006.6 1006.5 4.8
27/01:17am -0.7 -9.1 -0.8 99 0.0 NNW 33 56 18 30 1006.4 1006.4 4.2

Other Formats:

Comma delimited format used in spreadsheet applications
http://www.bom.gov.au/fwo/IDV60801/IDV60801.94903.axf

JavaScript Object Notation format (JSON) in row-major order
http://www.bom.gov.au/fwo/IDV60801/IDV60801.94903.json